Overton RPC :: 100B

liberation: 2020-09-19  08:00     latitude: 36.107992     longitude: -86.925452 34 birds
# LOFT PRING MILES ARRIVAL SPEED ToWin
1 VALHALLA LOFTS IF20-VALH-0048 93.284 2020-09-19 10:40:31.415 1022.782 00:00:00
2 VALHALLA LOFTS IF20-VALH-0012 93.284 2020-09-19 10:40:31.545 1022.768 00:00:00
3 VALHALLA LOFTS IF20-VALH-0019 93.284 2020-09-19 10:40:35.959 1022.300 00:00:05
4 VALHALLA LOFTS IF20-VALH-0041 93.284 2020-09-19 10:40:36.261 1022.268 00:00:05
5 VALHALLA LOFTS IF20-VALH-0093 93.284 2020-09-19 10:40:39.543 1021.920 00:00:08
6 VALHALLA LOFTS IF20-ORP-0010 93.284 2020-09-19 10:40:39.662 1021.907 00:00:08
7 VALHALLA LOFTS IF20-ORP-0004 93.284 2020-09-19 10:40:40.997 1021.765 00:00:10
8 VALHALLA LOFTS IF20-VALH-0010 93.284 2020-09-19 10:40:41.650 1021.696 00:00:10
9 VALHALLA LOFTS IF20-ORP-0005 93.284 2020-09-19 10:40:44.582 1021.386 00:00:13
10 VALHALLA LOFTS IF20-VALH-0030 93.284 2020-09-19 10:40:45.870 1021.249 00:00:14
11 VALHALLA LOFTS IF20-VALH-0029 93.284 2020-09-19 10:40:48.868 1020.932 00:00:17
12 VALHALLA LOFTS IF20-VALH-0038 93.284 2020-09-19 10:40:49.694 1020.845 00:00:18
13 VALHALLA LOFTS IF20-VALH-0039 93.284 2020-09-19 10:40:51.034 1020.703 00:00:20
14 VALHALLA LOFTS IF20-ORP-0017 93.284 2020-09-19 10:40:53.645 1020.427 00:00:22
15 VALHALLA LOFTS IF20-VALH-0027 93.284 2020-09-19 10:41:05.595 1019.165 00:00:34
16 VALHALLA LOFTS IF20-VALH-0044 93.284 2020-09-19 10:41:23.658 1017.264 00:00:52
17 VALHALLA LOFTS IF20-VALH-0040 93.284 2020-09-19 10:41:26.311 1016.985 00:00:55
18 VALHALLA LOFTS IF20-ORP-0016 93.284 2020-09-19 10:41:49.014 1014.607 00:01:18
19 VALHALLA LOFTS IF20-VALH-0031 93.284 2020-09-19 10:41:49.358 1014.571 00:01:18
20 VALHALLA LOFTS IF20-ORP-0003 93.284 2020-09-19 10:42:36.605 1009.658 00:02:05
21 VALHALLA LOFTS IF20-VALH-0034 93.284 2020-09-19 10:42:43.798 1008.914 00:02:12
22 VALHALLA LOFTS IF20-VALH-0007 93.284 2020-09-19 10:43:10.952 1006.116 00:02:40
23 VALHALLA LOFTS IF20-VALH-0024 93.284 2020-09-19 10:57:17.773 926.024 00:16:46
24 VALHALLA LOFTS IF20-VALH-0021 93.284 2020-09-19 10:57:21.162 925.729 00:16:50
25 LET IT GO LOFT IF20-ORP-0119 116.698 2020-09-19 12:46:34.145 716.718 01:25:45
26 LET IT GO LOFT IF20-ORP-0109 116.698 2020-09-19 12:48:36.557 711.651 01:27:48
LET IT GO LOFT IF20-ORP-0102 0 0000-00-00 00:00:00.000 0.000 00:00:00
LET IT GO LOFT IF20-ORP-0123 0 0000-00-00 00:00:00.000 0.000 00:00:00
LET IT GO LOFT IF20-ORP-0130 0 0000-00-00 00:00:00.000 0.000 00:00:00
LET IT GO LOFT IF20-ORP-0133 0 0000-00-00 00:00:00.000 0.000 00:00:00
LET IT GO LOFT IF20-ORP-0138 0 0000-00-00 00:00:00.000 0.000 00:00:00
LET IT GO LOFT IF20-ORP-0139 0 0000-00-00 00:00:00.000 0.000 00:00:00
LET IT GO LOFT IF20-ORP-0140 0 0000-00-00 00:00:00.000 0.000 00:00:00
LET IT GO LOFT IF20-ORP-0142 0 0000-00-00 00:00:00.000 0.000 00:00:00